createdAt,value
2022-12-03T09:48:21.206Z,-0.02
2022-12-03T09:50:54.001Z,-0.06
2022-12-03T09:53:27.393Z,-0.07
2022-12-03T09:56:01.158Z,-0.08
2022-12-03T09:58:35.065Z,-0.09
2022-12-03T10:01:12.101Z,-0.09
2022-12-03T10:03:50.710Z,-0.07
2022-12-03T10:06:24.564Z,-0.04
2022-12-03T10:08:57.029Z,-0.06
2022-12-03T10:11:30.041Z,-0.06
2022-12-03T10:14:02.515Z,-0.06
2022-12-03T10:28:30.906Z,0.12
2022-12-03T10:31:05.744Z,0.25
2022-12-03T10:33:44.811Z,0.28
2022-12-03T10:36:23.501Z,0.25
2022-12-03T10:39:14.751Z,0.22
2022-12-03T10:41:47.840Z,0.21
2022-12-03T10:44:22.567Z,0.14
2022-12-03T10:47:12.888Z,0.12
2022-12-03T10:49:45.382Z,0.11
2022-12-03T10:52:25.995Z,0.12
2022-12-03T10:54:57.755Z,0.11
2022-12-03T10:57:30.232Z,0.09
2022-12-03T11:00:02.748Z,0.01
2022-12-03T11:02:35.636Z,-0.03
2022-12-03T11:05:08.931Z,-0.09
2022-12-03T11:07:41.458Z,-0.15
2022-12-03T11:10:18.768Z,-0.17
2022-12-03T11:13:30.323Z,-0.19
2022-12-03T11:16:04.242Z,-0.16
2022-12-03T11:18:44.649Z,-0.16
2022-12-03T11:21:17.121Z,-0.16
2022-12-03T11:23:54.407Z,-0.12
2022-12-03T11:26:44.638Z,-0.10
2022-12-03T11:29:17.145Z,-0.09
2022-12-03T11:31:49.966Z,-0.03
2022-12-03T11:34:32.509Z,0.00
2022-12-03T11:37:19.103Z,0.04
2022-12-03T11:40:05.170Z,0.04
2022-12-03T11:42:41.563Z,0.05
2022-12-03T11:45:30.722Z,0.03
2022-12-03T11:48:15.189Z,0.01
2022-12-03T11:50:53.302Z,0.05
2022-12-03T11:53:31.352Z,0.03
2022-12-03T11:56:09.369Z,0.08
2022-12-03T11:58:45.364Z,0.06
2022-12-03T12:01:19.756Z,-0.13
2022-12-03T12:03:52.467Z,-0.22
2022-12-03T12:06:25.004Z,-0.30
2022-12-03T12:09:02.636Z,-0.34
2022-12-03T12:11:43.941Z,-0.40
2022-12-03T12:14:16.297Z,-0.47
2022-12-03T12:16:56.086Z,-0.48
2022-12-03T12:19:45.092Z,-0.45
2022-12-03T12:22:29.434Z,-0.43
2022-12-03T12:25:03.591Z,-0.41
2022-12-03T12:27:41.323Z,-0.40
2022-12-03T12:30:19.350Z,-0.39
2022-12-03T12:33:01.324Z,-0.43
2022-12-03T12:35:36.773Z,-0.37
2022-12-03T12:38:11.672Z,-0.30
2022-12-03T12:40:46.850Z,-0.05
2022-12-03T12:43:27.219Z,0.10
2022-12-03T12:46:18.655Z,0.19
2022-12-03T12:48:39.482Z,0.24
2022-12-03T12:51:22.137Z,0.27
2022-12-03T12:53:54.484Z,0.32
2022-12-03T12:56:32.177Z,0.36
2022-12-03T12:59:14.160Z,0.37
2022-12-03T13:01:48.252Z,0.33
2022-12-03T13:04:24.758Z,0.29
2022-12-03T13:06:57.124Z,0.22
2022-12-03T13:09:30.070Z,0.19
2022-12-03T13:12:07.579Z,0.17
2022-12-03T13:14:40.938Z,0.14
2022-12-03T13:17:18.560Z,0.07
2022-12-03T13:20:03.344Z,-0.02
2022-12-03T13:22:26.800Z,-0.09
2022-12-03T13:24:59.571Z,-0.13
2022-12-03T13:27:33.000Z,-0.16
2022-12-03T13:30:17.902Z,-0.20
2022-12-03T13:32:50.440Z,-0.23
2022-12-03T13:35:38.750Z,-0.28
2022-12-03T13:38:16.889Z,-0.32
2022-12-03T13:40:52.650Z,-0.37
2022-12-03T13:43:25.030Z,-0.43
2022-12-03T13:45:57.525Z,-0.44
2022-12-03T13:48:32.786Z,-0.47
2022-12-03T13:51:30.752Z,-0.53
2022-12-03T13:54:03.213Z,-0.54
2022-12-03T13:56:36.522Z,-0.55
2022-12-03T13:59:09.331Z,-0.54
2022-12-03T14:01:42.000Z,-0.54
2022-12-03T14:04:14.773Z,-0.63
2022-12-03T14:06:47.725Z,-0.70
2022-12-03T14:09:20.127Z,-0.70
2022-12-03T14:12:10.382Z,-0.76
2022-12-03T14:14:42.761Z,-0.76
2022-12-03T14:17:15.266Z,-0.77
2022-12-03T14:19:47.882Z,-0.80
2022-12-03T14:22:21.939Z,-0.84
2022-12-03T14:24:54.927Z,-0.81
2022-12-03T14:27:28.656Z,-0.82
2022-12-03T14:30:01.064Z,-0.82
2022-12-03T14:32:33.927Z,-0.80
2022-12-03T14:35:10.140Z,-0.78
2022-12-03T14:37:41.419Z,-0.74
2022-12-03T14:40:19.570Z,-0.75
2022-12-03T14:42:48.277Z,-0.74
2022-12-03T14:45:21.333Z,-0.74
2022-12-03T14:47:53.952Z,-0.75
2022-12-03T14:50:26.380Z,-0.77
2022-12-03T14:52:59.141Z,-0.78
2022-12-03T14:55:32.803Z,-0.79
2022-12-03T14:58:06.634Z,-0.79
2022-12-03T15:00:39.007Z,-0.78
2022-12-03T15:03:11.566Z,-0.77
2022-12-03T15:05:43.936Z,-0.78
2022-12-03T15:08:16.434Z,-0.77
2022-12-03T15:10:48.992Z,-0.74
2022-12-03T15:13:21.506Z,-0.72
2022-12-03T15:15:53.972Z,-0.72
2022-12-03T15:18:26.495Z,-0.69
2022-12-03T15:20:59.325Z,-0.69
2022-12-03T15:23:32.044Z,-0.68
2022-12-03T15:26:04.721Z,-0.68
2022-12-03T15:28:37.969Z,-0.70
2022-12-03T15:31:10.760Z,-0.68
2022-12-03T15:33:43.823Z,-0.66
2022-12-03T15:36:17.044Z,-0.63
2022-12-03T15:38:49.578Z,-0.58
2022-12-03T15:41:24.003Z,-0.53
2022-12-03T15:43:57.479Z,-0.52
2022-12-03T15:46:31.687Z,-0.55
2022-12-03T15:49:04.366Z,-0.57
2022-12-03T15:51:37.831Z,-0.58
2022-12-03T15:54:12.011Z,-0.62
2022-12-03T15:56:44.328Z,-0.62
2022-12-03T15:59:16.861Z,-0.63
2022-12-03T16:01:49.511Z,-0.57
2022-12-03T16:04:22.149Z,-0.57
2022-12-03T16:06:54.637Z,-0.54
2022-12-03T16:09:27.849Z,-0.51
2022-12-03T16:12:00.479Z,-0.49
2022-12-03T16:14:33.167Z,-0.50
2022-12-03T16:17:05.587Z,-0.48
2022-12-03T16:19:38.095Z,-0.44
2022-12-03T16:22:10.587Z,-0.40
2022-12-03T16:24:43.034Z,-0.41
2022-12-03T16:27:15.438Z,-0.38
2022-12-03T16:29:47.758Z,-0.39
2022-12-03T16:32:20.193Z,-0.39
2022-12-03T16:34:52.682Z,-0.37
2022-12-03T16:37:25.763Z,-0.33
2022-12-03T16:39:58.142Z,-0.28
2022-12-03T16:42:30.455Z,-0.23
2022-12-03T16:45:08.849Z,-0.20
2022-12-03T16:47:41.194Z,-0.20
2022-12-03T16:50:20.642Z,-0.18
2022-12-03T16:52:47.743Z,-0.16
2022-12-03T16:55:20.086Z,-0.13
2022-12-03T16:57:52.489Z,-0.14
2022-12-03T17:00:26.162Z,-0.12
2022-12-03T17:02:58.948Z,-0.12
2022-12-03T17:05:31.490Z,-0.09
2022-12-03T17:08:04.553Z,-0.08
2022-12-03T17:10:37.413Z,-0.09
2022-12-03T17:13:11.120Z,-0.10
2022-12-03T17:15:44.111Z,-0.10
2022-12-03T17:18:16.573Z,-0.11
2022-12-03T17:20:49.051Z,-0.10
2022-12-03T17:23:21.617Z,-0.10
2022-12-03T17:25:54.104Z,-0.13
2022-12-03T17:28:26.838Z,-0.17
2022-12-03T17:30:59.287Z,-0.19
2022-12-03T17:33:32.832Z,-0.18
2022-12-03T17:36:05.733Z,-0.18
2022-12-03T17:38:39.448Z,-0.22
2022-12-03T17:41:12.177Z,-0.24
2022-12-03T17:43:44.599Z,-0.29
2022-12-03T17:46:16.997Z,-0.29
2022-12-03T17:48:49.409Z,-0.24
2022-12-03T17:51:27.044Z,-0.24
2022-12-03T17:53:59.519Z,-0.26
2022-12-03T17:56:32.418Z,-0.29
2022-12-03T17:59:04.837Z,-0.32
2022-12-03T18:01:37.356Z,-0.35
2022-12-03T18:04:10.540Z,-0.36
2022-12-03T18:06:43.225Z,-0.39
2022-12-03T18:09:15.548Z,-0.40
2022-12-03T18:11:47.926Z,-0.38
2022-12-03T18:14:21.387Z,-0.36
2022-12-03T18:16:53.875Z,-0.36
2022-12-03T18:19:26.634Z,-0.35
2022-12-03T18:21:58.981Z,-0.36
2022-12-03T18:24:31.690Z,-0.39
2022-12-03T18:27:04.447Z,-0.46
2022-12-03T18:29:37.284Z,-0.51
2022-12-03T18:32:27.673Z,-0.53
2022-12-03T18:34:46.845Z,-0.55
2022-12-03T18:37:19.228Z,-0.55
2022-12-03T18:39:51.953Z,-0.56
2022-12-03T18:42:24.603Z,-0.58
2022-12-03T18:44:57.725Z,-0.59
2022-12-03T18:47:31.408Z,-0.59
2022-12-03T18:50:03.903Z,-0.58
2022-12-03T18:52:36.413Z,-0.58
2022-12-03T18:55:09.888Z,-0.57
2022-12-03T18:57:42.212Z,-0.57
2022-12-03T19:00:15.919Z,-0.55
2022-12-03T19:03:03.818Z,-0.56
2022-12-03T19:05:22.316Z,-0.52
2022-12-03T19:07:56.756Z,-0.54
2022-12-03T19:10:29.700Z,-0.58
2022-12-03T19:13:03.986Z,-0.61
2022-12-03T19:15:39.842Z,-0.65
2022-12-03T19:18:12.474Z,-0.73
2022-12-03T19:20:45.224Z,-0.78
2022-12-03T19:23:18.137Z,-0.79
2022-12-03T19:26:00.453Z,-0.74
2022-12-03T19:28:33.038Z,-0.73
2022-12-03T19:31:11.795Z,-0.75
2022-12-03T19:33:44.770Z,-0.77
2022-12-03T19:36:24.204Z,-0.81
2022-12-03T19:38:58.684Z,-0.81
2022-12-03T19:41:31.508Z,-0.88
2022-12-03T19:44:09.238Z,-0.87
2022-12-03T19:46:38.130Z,-0.88
2022-12-03T19:49:11.457Z,-0.91
2022-12-03T19:51:43.771Z,-0.94
2022-12-03T19:54:16.160Z,-0.98
2022-12-03T19:56:48.923Z,-1.02
2022-12-03T19:59:21.845Z,-1.06
2022-12-03T20:01:54.935Z,-1.06
2022-12-03T20:04:27.512Z,-1.09
2022-12-03T20:06:59.835Z,-1.14
2022-12-03T20:09:33.251Z,-1.19
2022-12-03T20:12:05.912Z,-1.25
2022-12-03T20:14:38.553Z,-1.33
2022-12-03T20:17:10.874Z,-1.41
2022-12-03T20:19:43.391Z,-1.46
2022-12-03T20:22:16.778Z,-1.48
2022-12-03T20:24:49.049Z,-1.49
2022-12-03T20:27:23.115Z,-1.55
2022-12-03T20:29:56.086Z,-1.57
2022-12-03T20:32:29.083Z,-1.59
2022-12-03T20:35:03.168Z,-1.60
2022-12-03T20:37:36.027Z,-1.59
2022-12-03T20:40:10.868Z,-1.59
2022-12-03T20:42:44.986Z,-1.60
2022-12-03T20:45:17.387Z,-1.64
2022-12-03T20:47:49.904Z,-1.68
2022-12-03T20:50:22.665Z,-1.70
2022-12-03T20:53:22.648Z,-1.69
2022-12-03T20:55:29.022Z,-1.70
2022-12-03T20:58:01.249Z,-1.76
2022-12-03T21:00:33.815Z,-1.81
2022-12-03T21:03:06.393Z,-1.86
2022-12-03T21:05:39.119Z,-1.89
2022-12-03T21:08:12.961Z,-1.97
2022-12-03T21:10:45.823Z,-2.00
2022-12-03T21:13:19.291Z,-1.99
2022-12-03T21:15:51.693Z,-1.98
2022-12-03T21:18:24.630Z,-1.98
2022-12-03T21:20:57.120Z,-1.99
2022-12-03T21:23:32.033Z,-2.03
2022-12-03T21:26:09.722Z,-2.05
2022-12-03T21:28:43.399Z,-2.05
2022-12-03T21:31:19.636Z,-2.05
2022-12-03T21:33:53.748Z,-2.02
2022-12-03T21:36:26.427Z,-2.01
2022-12-03T21:38:58.784Z,-2.04
2022-12-03T21:41:31.202Z,-2.06
2022-12-03T21:44:03.595Z,-2.08
2022-12-03T21:47:11.971Z,-2.06
2022-12-03T21:49:10.292Z,-2.10
2022-12-03T21:51:42.860Z,-2.16
2022-12-03T21:54:15.422Z,-2.18
2022-12-03T21:56:47.875Z,-2.14
2022-12-03T21:59:20.514Z,-2.12
2022-12-03T22:01:53.078Z,-2.15
2022-12-03T22:04:25.848Z,-2.16
2022-12-03T22:06:58.389Z,-2.21
2022-12-03T22:09:31.987Z,-2.22
2022-12-03T22:12:04.414Z,-2.23
2022-12-03T22:14:37.622Z,-2.26
2022-12-03T22:17:10.237Z,-2.23
2022-12-03T22:19:42.536Z,-2.25
2022-12-03T22:22:15.554Z,-2.29
2022-12-03T22:24:49.020Z,-2.34
2022-12-03T22:27:21.347Z,-2.36
2022-12-03T22:29:54.188Z,-2.38
2022-12-03T22:32:27.081Z,-2.43
2022-12-03T22:34:59.396Z,-2.48
2022-12-03T22:37:32.895Z,-2.50
2022-12-03T22:40:05.654Z,-2.50
2022-12-03T22:42:38.636Z,-2.51
2022-12-03T22:45:11.651Z,-2.54
2022-12-03T22:47:44.066Z,-2.57
2022-12-03T22:50:16.580Z,-2.57
2022-12-03T22:52:48.915Z,-2.57
2022-12-03T22:55:21.288Z,-2.56
2022-12-03T22:57:53.762Z,-2.58
2022-12-03T23:00:38.605Z,-2.61
2022-12-03T23:03:11.353Z,-2.62
2022-12-03T23:05:44.086Z,-2.64
2022-12-03T23:08:19.587Z,-2.64
2022-12-03T23:10:53.314Z,-2.61
2022-12-03T23:13:25.721Z,-2.62
2022-12-03T23:15:58.416Z,-2.61
2022-12-03T23:18:31.076Z,-2.61
2022-12-03T23:21:03.491Z,-2.60
2022-12-03T23:23:36.449Z,-2.61
2022-12-03T23:26:10.878Z,-2.64
2022-12-03T23:28:44.941Z,-2.71
2022-12-03T23:31:31.683Z,-2.74
2022-12-03T23:34:04.213Z,-2.77
2022-12-03T23:36:36.749Z,-2.75
2022-12-03T23:39:09.577Z,-2.78
2022-12-03T23:41:42.273Z,-2.84
2022-12-03T23:44:14.752Z,-2.80
2022-12-03T23:46:47.547Z,-2.82
2022-12-03T23:49:20.087Z,-2.88
2022-12-03T23:51:52.583Z,-2.91
2022-12-03T23:54:25.105Z,-2.91
2022-12-03T23:56:57.434Z,-2.91
2022-12-03T23:59:29.847Z,-2.94
